Time;durP1;ratioP1;P1;durP2;ratioP2;P2;SDS_P1;SDS_P2;PMS_P1;PMS_P2;Temp;Humidity;BMP_temperature;BMP_pressure;BME280_temperature;BME280_humidity;BME280_pressure;Samples;Min_cycle;Max_cycle;Signal;HPM_P1;HPM_P2
2020/12/23 00:01:33;;;;;;;166.85;42.90;;;;;;;;;;10203069;28;20122;-64
2020/12/23 00:06:35;;;;;;;165.63;43.90;;;;;;;;;;10179786;28;20067;-65
2020/12/23 00:11:36;;;;;;;167.57;43.65;;;;;;;;;;10180046;28;20048;-65
2020/12/23 00:16:42;;;;;;;192.07;47.47;;;;;;;;;;10175683;28;20496;-66
2020/12/23 00:21:44;;;;;;;172.82;44.38;;;;;;;;;;10172631;28;20060;-66
2020/12/23 00:26:45;;;;;;;181.07;45.08;;;;;;;;;;10187441;28;20046;-67
2020/12/23 00:31:48;;;;;;;183.40;46.85;;;;;;;;;;10210927;28;20075;-64
2020/12/23 00:36:53;;;;;;;207.13;49.40;;;;;;;;;;10192552;28;20132;-65
2020/12/23 00:41:55;;;;;;;183.98;46.97;;;;;;;;;;10181737;28;20064;-66
2020/12/23 00:46:58;;;;;;;192.60;45.70;;;;;;;;;;10266993;28;20143;-66
2020/12/23 00:51:59;;;;;;;208.73;48.90;;;;;;;;;;10179892;28;20135;-65
2020/12/23 00:57:01;;;;;;;202.80;49.95;;;;;;;;;;10199528;28;20139;-66
2020/12/23 01:02:04;;;;;;;219.18;48.83;;;;;;;;;;10178905;28;20044;-66
2020/12/23 01:07:05;;;;;;;215.98;50.08;;;;;;;;;;10179651;28;20052;-66
2020/12/23 01:12:07;;;;;;;216.75;50.20;;;;;;;;;;10219336;28;20052;-64
2020/12/23 01:17:11;;;;;;;221.35;47.17;;;;;;;;;;10182715;28;20056;-66
2020/12/23 01:22:13;;;;;;;215.18;44.53;;;;;;;;;;10183032;28;20048;-66
2020/12/23 01:27:15;;;;;;;268.77;47.30;;;;;;;;;;10219943;28;20157;-64
2020/12/23 01:32:17;;;;;;;297.00;51.45;;;;;;;;;;10179540;28;20398;-68
2020/12/23 01:37:19;;;;;;;356.98;52.35;;;;;;;;;;10224691;28;20429;-67
2020/12/23 01:42:20;;;;;;;303.80;50.28;;;;;;;;;;10202491;28;20067;-65
2020/12/23 01:47:23;;;;;;;336.48;54.67;;;;;;;;;;10221022;28;20132;-68
2020/12/23 01:52:26;;;;;;;368.23;56.35;;;;;;;;;;10175151;28;20079;-66
2020/12/23 01:57:27;;;;;;;333.80;58.60;;;;;;;;;;10203833;28;20058;-64
2020/12/23 02:02:30;;;;;;;338.88;60.13;;;;;;;;;;10178299;28;20054;-67
2020/12/23 02:07:32;;;;;;;356.35;59.67;;;;;;;;;;10194304;28;20052;-64
2020/12/23 02:12:34;;;;;;;319.08;63.25;;;;;;;;;;10183362;28;20131;-64
2020/12/23 02:17:37;;;;;;;275.73;57.85;;;;;;;;;;10187013;28;20151;-66
2020/12/23 02:22:39;;;;;;;344.02;65.70;;;;;;;;;;10206417;28;20154;-64
2020/12/23 02:27:41;;;;;;;345.10;69.93;;;;;;;;;;10185462;28;20554;-65
2020/12/23 02:32:43;;;;;;;325.50;67.18;;;;;;;;;;10184051;28;20079;-65
2020/12/23 02:37:45;;;;;;;319.40;65.03;;;;;;;;;;10181758;28;20102;-65
2020/12/23 02:42:47;;;;;;;285.23;64.18;;;;;;;;;;10186879;28;20155;-65
2020/12/23 02:47:49;;;;;;;284.07;60.80;;;;;;;;;;10208941;28;20044;-64
2020/12/23 02:52:52;;;;;;;272.30;64.72;;;;;;;;;;10179253;28;20062;-64
2020/12/23 02:57:53;;;;;;;256.40;65.43;;;;;;;;;;10188881;28;20514;-64
2020/12/23 03:02:55;;;;;;;253.70;63.58;;;;;;;;;;10176229;28;20787;-66
2020/12/23 03:07:57;;;;;;;255.95;63.65;;;;;;;;;;10197600;28;20574;-64
2020/12/23 03:12:59;;;;;;;250.82;62.03;;;;;;;;;;10180635;28;20054;-63
2020/12/23 03:18:01;;;;;;;253.55;60.88;;;;;;;;;;10187606;28;20143;-64
2020/12/23 03:23:04;;;;;;;264.38;65.90;;;;;;;;;;10178776;28;20502;-63
2020/12/23 03:28:05;;;;;;;256.83;64.57;;;;;;;;;;10177341;28;20106;-65
2020/12/23 03:33:07;;;;;;;273.05;69.10;;;;;;;;;;10200414;28;20060;-64
2020/12/23 03:38:09;;;;;;;269.17;68.65;;;;;;;;;;10211166;28;20050;-64
2020/12/23 03:43:11;;;;;;;252.05;61.70;;;;;;;;;;10196709;28;20138;-64
2020/12/23 03:48:13;;;;;;;258.23;62.20;;;;;;;;;;10190493;28;20064;-63
2020/12/23 03:53:15;;;;;;;238.35;59.38;;;;;;;;;;10183893;28;20385;-65
2020/12/23 03:58:17;;;;;;;231.80;58.53;;;;;;;;;;10226446;28;20056;-65
2020/12/23 04:03:19;;;;;;;239.38;56.67;;;;;;;;;;10187882;28;20048;-65
2020/12/23 04:08:21;;;;;;;263.55;59.03;;;;;;;;;;10218893;28;20143;-64
2020/12/23 04:13:23;;;;;;;235.25;56.25;;;;;;;;;;10182231;28;20187;-64
2020/12/23 04:18:25;;;;;;;241.60;56.50;;;;;;;;;;10193984;28;20111;-63
2020/12/23 04:23:27;;;;;;;255.70;59.20;;;;;;;;;;10247010;28;20408;-62
2020/12/23 04:28:29;;;;;;;214.95;50.80;;;;;;;;;;10205474;28;20533;-62
2020/12/23 04:33:31;;;;;;;252.10;53.80;;;;;;;;;;10196879;28;20059;-62
2020/12/23 04:38:33;;;;;;;247.23;55.10;;;;;;;;;;10200491;28;20071;-63
2020/12/23 04:43:35;;;;;;;232.00;49.85;;;;;;;;;;10190256;28;20052;-62
2020/12/23 04:48:39;;;;;;;221.25;44.42;;;;;;;;;;10224543;28;20138;-62
2020/12/23 04:53:42;;;;;;;230.48;45.45;;;;;;;;;;10210617;28;20133;-64
2020/12/23 04:58:43;;;;;;;;;;;;;;;;;;10199405;28;20083;-65
2020/12/23 05:03:45;;;;;;;239.90;46.22;;;;;;;;;;10180064;28;20614;-63
2020/12/23 05:08:48;;;;;;;224.32;43.25;;;;;;;;;;10184486;28;20056;-64
2020/12/23 05:13:50;;;;;;;210.73;41.30;;;;;;;;;;10179232;28;20052;-65
2020/12/23 05:18:56;;;;;;;215.05;41.65;;;;;;;;;;10197254;28;20056;-64
2020/12/23 05:23:59;;;;;;;185.93;38.70;;;;;;;;;;10177354;28;20083;-64
2020/12/23 05:29:01;;;;;;;174.57;35.42;;;;;;;;;;10201227;28;20549;-64
2020/12/23 05:34:03;;;;;;;161.05;33.90;;;;;;;;;;10190233;28;20044;-63
2020/12/23 05:39:06;;;;;;;156.07;34.17;;;;;;;;;;10188297;28;20052;-66
2020/12/23 05:44:15;;;;;;;187.35;39.00;;;;;;;;;;10211297;28;20123;-63
2020/12/23 05:49:17;;;;;;;164.70;37.72;;;;;;;;;;10193786;28;20060;-63
2020/12/23 05:54:20;;;;;;;154.88;32.55;;;;;;;;;;10214608;28;20061;-62
2020/12/23 05:59:22;;;;;;;137.52;27.83;;;;;;;;;;10230259;28;20409;-62
2020/12/23 06:04:25;;;;;;;141.35;30.95;;;;;;;;;;10196898;28;20059;-63
2020/12/23 06:09:31;;;;;;;114.47;24.95;;;;;;;;;;10206249;28;20381;-63
2020/12/23 06:14:34;;;;;;;78.30;18.08;;;;;;;;;;10219626;28;20048;-63
2020/12/23 06:19:37;;;;;;;73.15;20.90;;;11.20;99.70;;;;;;10227394;28;20062;-64
2020/12/23 06:24:39;;;;;;;64.40;17.63;;;11.20;99.90;;;;;;10244641;28;21310;-63
2020/12/23 06:29:43;;;;;;;62.90;15.32;;;11.20;99.90;;;;;;10237386;28;20106;-63
2020/12/23 06:34:45;;;;;;;;;;;11.20;99.90;;;;;;10254969;28;20048;-64
2020/12/23 06:39:48;;;;;;;41.53;11.43;;;11.20;99.90;;;;;;10194254;28;19923;-63
2020/12/23 06:45:00;;;;;;;46.25;10.95;;;11.20;99.90;;;;;;10204240;28;20567;-64
2020/12/23 06:50:05;;;;;;;35.47;9.40;;;11.20;99.90;;;;;;10173047;28;20063;-65
2020/12/23 06:55:09;;;;;;;23.60;7.30;;;11.20;99.90;;;;;;10176640;28;20131;-63
2020/12/23 07:00:13;;;;;;;41.47;17.50;;;11.20;99.90;;;;;;10174984;28;20057;-64
2020/12/23 07:05:32;;;;;;;71.75;23.05;;;11.30;99.90;;;;;;10244200;28;20135;-62
2020/12/23 07:10:37;;;;;;;81.18;21.25;;;11.40;99.90;;;;;;10183411;28;20882;-63
2020/12/23 07:15:40;;;;;;;96.18;27.00;;;11.40;99.90;;;;;;10199260;28;20051;-63
2020/12/23 07:20:44;;;;;;;104.00;33.40;;;11.40;99.90;;;;;;10182023;28;20147;-64
2020/12/23 07:25:48;;;;;;;62.08;20.35;;;11.40;99.90;;;;;;10181699;28;20060;-64
2020/12/23 07:30:49;;;;;;;50.47;15.80;;;11.30;99.90;;;;;;10184637;28;20048;-63
2020/12/23 07:35:52;;;;;;;66.82;18.08;;;11.30;99.90;;;;;;10187308;28;20194;-62
2020/12/23 07:40:55;;;;;;;69.70;18.38;;;11.30;99.90;;;;;;10180551;28;20067;-63
2020/12/23 07:45:57;;;;;;;74.85;20.23;;;11.30;99.90;;;;;;10209673;28;20052;-64
2020/12/23 07:50:59;;;;;;;68.13;19.08;;;11.20;99.90;;;;;;10183769;28;20135;-64
2020/12/23 07:56:05;;;;;;;67.13;20.40;;;11.20;99.90;;;;;;10186256;28;20094;-63
2020/12/23 08:01:08;;;;;;;58.40;17.23;;;11.20;99.90;;;;;;10250354;28;20500;-65
2020/12/23 08:06:11;;;;;;;47.33;16.98;;;11.20;99.90;;;;;;10188257;28;20139;-63
2020/12/23 08:11:15;;;;;;;46.22;15.82;;;11.20;99.90;;;;;;10252491;28;20050;-63
2020/12/23 08:16:16;;;;;;;48.15;17.45;;;11.20;99.90;;;;;;10209289;28;20058;-63
2020/12/23 08:21:18;;;;;;;49.80;18.88;;;11.20;99.90;;;;;;10199529;28;20159;-64
2020/12/23 08:26:20;;;;;;;45.03;19.35;;;11.20;99.90;;;;;;10228772;28;20509;-63
2020/12/23 08:31:25;;;;;;;43.53;18.63;;;11.20;99.90;;;;;;10255255;28;20124;-62
2020/12/23 08:36:29;;;;;;;53.00;23.30;;;11.20;99.90;;;;;;10185948;28;20048;-63
2020/12/23 08:41:31;;;;;;;50.65;22.00;;;11.20;99.90;;;;;;10189661;28;20758;-63
2020/12/23 08:46:39;;;;;;;44.57;18.67;;;11.10;99.90;;;;;;10206553;28;20483;-63
2020/12/23 08:51:41;;;;;;;41.05;18.05;;;11.10;99.90;;;;;;10178411;28;20418;-63
2020/12/23 08:56:47;;;;;;;36.58;16.75;;;11.10;99.90;;;;;;10180166;28;20447;-62
2020/12/23 09:01:49;;;;;;;31.02;13.05;;;11.10;99.90;;;;;;10196319;28;20052;-63
2020/12/23 09:06:58;;;;;;;36.50;14.65;;;11.10;99.90;;;;;;10177547;28;20489;-63
2020/12/23 09:12:04;;;;;;;37.63;11.32;;;;;;;;;;10189953;28;20064;-62
2020/12/23 09:17:06;;;;;;;0.25;0.25;;;11.00;99.90;;;;;;10183537;28;20510;-61
2020/12/23 09:22:08;;;;;;;0.20;0.20;;;11.00;99.90;;;;;;10240658;28;20092;-61
2020/12/23 09:27:23;;;;;;;0.10;0.10;;;11.10;99.90;;;;;;10200728;28;20460;-61
2020/12/23 09:32:24;;;;;;;0.13;0.13;;;11.10;99.90;;;;;;10187388;28;20451;-62
2020/12/23 09:37:29;;;;;;;0.25;0.25;;;11.20;99.90;;;;;;10199003;28;20183;-61
2020/12/23 09:42:33;;;;;;;0.10;0.10;;;11.20;99.90;;;;;;10182617;28;20488;-62
2020/12/23 09:47:34;;;;;;;0.10;0.10;;;11.30;99.90;;;;;;10211203;28;20044;-61
2020/12/23 09:52:36;;;;;;;0.20;0.20;;;11.30;99.90;;;;;;10189416;28;20492;-62
2020/12/23 09:57:38;;;;;;;0.40;0.40;;;11.30;99.90;;;;;;10176538;28;20563;-61
2020/12/23 10:02:39;;;;;;;0.10;0.10;;;11.30;99.90;;;;;;10178647;28;20055;-60
2020/12/23 10:07:41;;;;;;;0.10;0.10;;;11.30;99.90;;;;;;10202306;28;20143;-61
2020/12/23 10:12:43;;;;;;;0.10;0.10;;;11.40;99.90;;;;;;10211565;28;20530;-62
2020/12/23 10:17:44;;;;;;;0.10;0.10;;;11.50;99.90;;;;;;10190278;28;20045;-62
2020/12/23 10:22:46;;;;;;;0.40;0.40;;;11.50;99.90;;;;;;10227218;28;20049;-63
2020/12/23 10:27:48;;;;;;;0.28;0.28;;;11.50;99.90;;;;;;10175648;28;20147;-62
2020/12/23 10:32:49;;;;;;;0.00;0.00;;;11.40;99.90;;;;;;10173665;28;20052;-60
2020/12/23 10:37:50;;;;;;;0.20;0.20;;;11.40;99.90;;;;;;10241006;28;20052;-61
2020/12/23 10:42:53;;;;;;;1.10;0.73;;;11.40;99.90;;;;;;10177434;28;20516;-62
2020/12/23 10:47:54;;;;;;;0.20;0.20;;;11.60;99.90;;;;;;10213523;28;20084;-61
2020/12/23 10:52:55;;;;;;;2.05;1.75;;;11.70;99.80;;;;;;10187306;28;20088;-61
2020/12/23 10:57:57;;;;;;;0.38;0.38;;;11.70;99.80;;;;;;10205904;28;20151;-61
2020/12/23 11:02:59;;;;;;;0.10;0.10;;;11.70;99.80;;;;;;10174995;28;20135;-60
2020/12/23 11:08:00;;;;;;;0.22;0.22;;;11.70;99.70;;;;;;10181898;28;20048;-63
2020/12/23 11:13:03;;;;;;;0.43;0.43;;;11.80;99.80;;;;;;10175735;28;20688;-62
2020/12/23 11:18:04;;;;;;;0.10;0.10;;;11.80;99.70;;;;;;10187214;28;20051;-63
2020/12/23 11:23:06;;;;;;;0.10;0.10;;;11.80;99.70;;;;;;10186123;28;20139;-63
2020/12/23 11:28:08;;;;;;;0.10;0.10;;;11.70;99.70;;;;;;10208033;28;20045;-63
2020/12/23 11:33:09;;;;;;;0.20;0.20;;;11.70;99.80;;;;;;10199718;28;20048;-63
2020/12/23 11:38:10;;;;;;;0.10;0.10;;;11.70;99.80;;;;;;10185261;28;20057;-63
2020/12/23 11:43:12;;;;;;;0.10;0.10;;;11.70;99.80;;;;;;10179049;28;20060;-63
2020/12/23 11:48:14;;;;;;;0.30;0.30;;;11.80;99.80;;;;;;10181231;28;20051;-65
2020/12/23 11:53:15;;;;;;;0.10;0.10;;;11.80;99.80;;;;;;10197677;28;20424;-61
2020/12/23 11:58:17;;;;;;;0.30;0.30;;;11.80;99.70;;;;;;10209085;28;20056;-62
2020/12/23 12:03:19;;;;;;;0.20;0.20;;;11.90;99.70;;;;;;10206234;28;20062;-62
2020/12/23 12:08:21;;;;;;;2.65;0.82;;;11.80;99.60;;;;;;10207001;28;20651;-63
2020/12/23 12:13:23;;;;;;;0.10;0.10;;;11.80;99.60;;;;;;10179254;28;20097;-63
2020/12/23 12:18:25;;;;;;;0.57;0.57;;;12.00;99.60;;;;;;10179677;28;20575;-65
2020/12/23 12:23:26;;;;;;;0.20;0.20;;;12.10;99.40;;;;;;10217055;28;20046;-66
2020/12/23 12:28:28;;;;;;;0.10;0.10;;;;;;;;;;10193988;28;20055;-67
2020/12/23 12:33:30;;;;;;;0.10;0.10;;;12.50;99.90;;;;;;10209225;28;20052;-67
2020/12/23 12:38:31;;;;;;;0.10;0.10;;;12.40;98.40;;;;;;10177719;28;20407;-66
2020/12/23 12:43:34;;;;;;;0.10;0.10;;;12.70;97.80;;;;;;10185757;28;20782;-66
2020/12/23 12:48:36;;;;;;;;;;;;;;;;;;10179296;28;20056;-66
2020/12/23 12:53:37;;;;;;;0.20;0.20;;;12.70;97.00;;;;;;10190169;28;19961;-67
2020/12/23 12:58:39;;;;;;;0.10;0.10;;;12.90;96.80;;;;;;10192023;28;20206;-65
2020/12/23 13:03:40;;;;;;;0.20;0.20;;;13.10;96.20;;;;;;10194113;28;20388;-66
2020/12/23 13:08:43;;;;;;;6.55;2.75;;;13.10;95.90;;;;;;10177910;28;20049;-66
2020/12/23 13:13:45;;;;;;;0.10;0.10;;;12.90;95.90;;;;;;10197084;28;20052;-68
2020/12/23 13:18:47;;;;;;;0.10;0.10;;;12.80;96.00;;;;;;10184907;28;20090;-65
2020/12/23 13:23:48;;;;;;;0.10;0.10;;;12.70;96.10;;;;;;10186156;28;20146;-65
2020/12/23 13:28:51;;;;;;;0.10;0.10;;;12.50;96.10;;;;;;10198813;28;20630;-68
2020/12/23 13:33:52;;;;;;;0.10;0.10;;;12.40;96.40;;;;;;10193561;28;20407;-65
2020/12/23 13:38:54;;;;;;;0.10;0.10;;;12.50;96.70;;;;;;10175304;28;20087;-65
2020/12/23 13:43:56;;;;;;;0.10;0.10;;;12.80;96.70;;;;;;10184422;28;20117;-66
2020/12/23 13:48:58;;;;;;;0.10;0.10;;;;;;;;;;10194118;28;20735;-66
2020/12/23 13:54:00;;;;;;;0.10;0.10;;;;;;;;;;10194429;28;20055;-65
2020/12/23 13:59:02;;;;;;;0.10;0.10;;;13.30;99.90;;;;;;10182765;28;20135;-65
2020/12/23 14:04:03;;;;;;;0.10;0.10;;;13.10;94.50;;;;;;10203746;28;20044;-66
2020/12/23 14:09:05;;;;;;;0.10;0.10;;;13.00;99.90;;;;;;10173022;28;20143;-67
2020/12/23 14:14:07;;;;;;;0.13;0.13;;;12.70;95.90;;;;;;10172414;28;20058;-65
2020/12/23 14:19:08;;;;;;;0.17;0.17;;;;;;;;;;10194491;28;20050;-66
2020/12/23 14:24:10;;;;;;;0.20;0.20;;;13.20;95.70;;;;;;10188457;28;20085;-66
2020/12/23 14:29:13;;;;;;;0.10;0.10;;;13.10;95.90;;;;;;10180035;28;20040;-65
2020/12/23 14:34:15;;;;;;;0.10;0.10;;;12.90;96.10;;;;;;10197730;28;20055;-67
2020/12/23 14:39:16;;;;;;;0.52;0.52;;;12.60;96.50;;;;;;10191110;28;20082;-66
2020/12/23 14:44:18;;;;;;;0.10;0.10;;;12.40;97.10;;;;;;10174416;28;20059;-66
2020/12/23 14:49:20;;;;;;;3.10;0.77;;;12.20;97.60;;;;;;10185823;28;20060;-67
2020/12/23 14:54:21;;;;;;;0.10;0.10;;;12.20;97.80;;;;;;10184927;28;20056;-67
2020/12/23 14:59:24;;;;;;;0.10;0.10;;;12.10;97.90;;;;;;10193586;28;20103;-69
2020/12/23 15:04:25;;;;;;;0.30;0.30;;;11.90;97.70;;;;;;10212615;28;20132;-65
2020/12/23 15:09:26;;;;;;;0.20;0.20;;;11.80;97.90;;;;;;10226317;28;20490;-65
2020/12/23 15:14:29;;;;;;;0.20;0.20;;;11.80;98.20;;;;;;10194401;28;20393;-63
2020/12/23 15:19:30;;;;;;;0.20;0.20;;;11.70;98.00;;;;;;10175129;28;20048;-65
2020/12/23 15:24:32;;;;;;;0.30;0.30;;;11.50;98.00;;;;;;10193659;28;20054;-64
2020/12/23 15:29:34;;;;;;;0.52;0.52;;;11.50;98.10;;;;;;10188885;28;20511;-64
2020/12/23 15:34:35;;;;;;;0.30;0.30;;;11.40;98.30;;;;;;10205778;28;20139;-65
2020/12/23 15:39:36;;;;;;;0.10;0.10;;;11.40;98.50;;;;;;10185176;28;20056;-68
2020/12/23 15:44:39;;;;;;;0.10;0.10;;;11.40;98.60;;;;;;10212742;28;20563;-65
2020/12/23 15:49:40;;;;;;;0.10;0.10;;;11.50;98.90;;;;;;10216388;28;20131;-66
2020/12/23 15:54:41;;;;;;;0.52;0.52;;;11.50;99.10;;;;;;10179670;28;20048;-65
2020/12/23 15:59:43;;;;;;;0.30;0.30;;;11.50;99.10;;;;;;10190631;28;20622;-65
2020/12/23 16:04:44;;;;;;;0.50;0.50;;;11.40;99.20;;;;;;10190992;28;20052;-66
2020/12/23 16:09:46;;;;;;;0.17;0.17;;;11.40;99.20;;;;;;10177981;28;20060;-65
2020/12/23 16:14:48;;;;;;;0.35;0.35;;;11.40;99.30;;;;;;10195369;28;20055;-65
2020/12/23 16:19:49;;;;;;;0.10;0.10;;;11.30;99.30;;;;;;10212759;28;20058;-65
2020/12/23 16:24:51;;;;;;;0.20;0.20;;;11.20;99.30;;;;;;10191227;28;20480;-70
2020/12/23 16:29:54;;;;;;;0.20;0.20;;;11.30;99.50;;;;;;10240530;28;20048;-65
2020/12/23 16:34:56;;;;;;;0.10;0.10;;;11.40;99.60;;;;;;10193283;28;20056;-67
2020/12/23 16:39:57;;;;;;;0.20;0.20;;;11.50;99.70;;;;;;10224526;28;20055;-64
2020/12/23 16:44:59;;;;;;;0.15;0.15;;;11.50;99.70;;;;;;10202574;28;20044;-73
2020/12/23 16:50:01;;;;;;;0.20;0.20;;;11.50;99.70;;;;;;10215386;28;20490;-70
2020/12/23 16:55:03;;;;;;;0.25;0.25;;;11.50;99.90;;;;;;10209204;28;20138;-69
2020/12/23 17:00:06;;;;;;;1.08;1.00;;;11.50;99.80;;;;;;10180807;28;20048;-74
2020/12/23 17:05:07;;;;;;;1.02;0.63;;;11.60;99.80;;;;;;10179900;28;20048;-68
2020/12/23 17:10:08;;;;;;;0.20;0.20;;;11.50;99.80;;;;;;10212299;28;20052;-69
2020/12/23 17:15:11;;;;;;;0.17;0.17;;;11.50;99.80;;;;;;10188656;28;20139;-69
2020/12/23 17:20:12;;;;;;;0.70;0.70;;;11.50;99.80;;;;;;10204122;28;20454;-70
2020/12/23 17:25:13;;;;;;;0.32;0.32;;;11.50;99.90;;;;;;10196820;28;20139;-67
2020/12/23 17:30:16;;;;;;;0.10;0.10;;;11.50;99.90;;;;;;10213443;28;20154;-71
2020/12/23 17:35:17;;;;;;;0.20;0.20;;;11.60;99.90;;;;;;10212954;28;20415;-67
2020/12/23 17:40:19;;;;;;;0.40;0.40;;;11.50;99.90;;;;;;10194978;28;20048;-68
2020/12/23 17:45:21;;;;;;;0.13;0.13;;;11.50;99.90;;;;;;10244288;28;20417;-68
2020/12/23 17:50:23;;;;;;;0.10;0.10;;;11.50;99.90;;;;;;10215608;28;20051;-65
2020/12/23 17:55:24;;;;;;;0.10;0.10;;;11.60;99.90;;;;;;10477581;23;20140;-61
2020/12/23 18:00:26;;;;;;;0.10;0.10;;;10.90;99.20;;;;;;10362625;28;20050;-63
2020/12/23 18:05:28;;;;;;;0.20;0.20;;;10.40;99.10;;;;;;10361891;28;20070;-64
2020/12/23 18:10:29;;;;;;;0.10;0.10;;;10.20;99.30;;;;;;10364047;28;20080;-63
2020/12/23 18:15:31;;;;;;;0.10;0.10;;;10.10;99.50;;;;;;10362499;28;20440;-63
2020/12/23 18:20:33;;;;;;;0.10;0.10;;;10.00;99.70;;;;;;10363981;28;20050;-64
2020/12/23 18:25:35;;;;;;;0.10;0.10;;;9.90;99.70;;;;;;10357262;28;20054;-65
2020/12/23 18:30:37;;;;;;;0.10;0.10;;;9.80;99.70;;;;;;10360851;28;20042;-63
2020/12/23 18:35:39;;;;;;;0.10;0.10;;;9.80;99.80;;;;;;10362276;28;20132;-64
2020/12/23 18:40:40;;;;;;;0.20;0.20;;;9.80;99.80;;;;;;10358085;28;20192;-66
2020/12/23 18:45:45;;;;;;;0.10;0.10;;;9.80;99.90;;;;;;10361091;28;20052;-65
2020/12/23 18:50:47;;;;;;;0.10;0.10;;;9.80;99.90;;;;;;10362826;28;20200;-73
2020/12/23 18:56:07;;;;;;;0.38;0.38;;;9.70;99.80;;;;;;10559368;27;20677;-64
2020/12/23 19:01:09;;;;;;;0.20;0.20;;;9.70;99.90;;;;;;10560010;28;20066;-68
2020/12/23 19:06:10;;;;;;;0.20;0.20;;;9.80;99.90;;;;;;10560189;28;20040;-68
2020/12/23 19:11:12;;;;;;;0.30;0.30;;;9.90;99.90;;;;;;10560628;28;20079;-67
2020/12/23 19:16:13;;;;;;;0.40;0.40;;;10.00;99.90;;;;;;10560446;28;20146;-68
2020/12/23 19:21:15;;;;;;;0.20;0.20;;;10.00;99.90;;;;;;10560147;27;20134;-67
2020/12/23 19:26:17;;;;;;;0.10;0.10;;;10.00;99.90;;;;;;10502768;27;20175;-64
2020/12/23 19:31:18;;;;;;;0.10;0.10;;;10.00;99.90;;;;;;10457288;28;20105;-68
2020/12/23 19:36:19;;;;;;;0.43;0.40;;;10.00;99.90;;;;;;10475839;28;20852;-64
2020/12/23 19:41:21;;;;;;;0.10;0.10;;;9.90;99.90;;;;;;10473572;28;20535;-65
2020/12/23 19:46:23;;;;;;;0.82;0.65;;;9.90;99.90;;;;;;10475649;28;20041;-66
2020/12/23 19:51:24;;;;;;;0.50;0.50;;;9.90;99.90;;;;;;10471043;28;20147;-65
2020/12/23 19:56:26;;;;;;;0.10;0.10;;;9.90;99.90;;;;;;10471809;28;20434;-65
2020/12/23 20:01:28;;;;;;;5.73;1.40;;;9.90;99.90;;;;;;10461348;28;20099;-65
2020/12/23 20:06:29;;;;;;;0.45;0.45;;;9.90;99.90;;;;;;10447012;28;20175;-65
2020/12/23 20:11:32;;;;;;;0.65;0.55;;;9.90;99.90;;;;;;10442648;28;20476;-65
2020/12/23 20:16:34;;;;;;;0.20;0.20;;;9.90;99.90;;;;;;10442729;28;20053;-64
2020/12/23 20:21:37;;;;;;;0.10;0.10;;;9.90;99.90;;;;;;10433785;28;20111;-65
2020/12/23 20:26:39;;;;;;;;;;;9.80;99.90;;;;;;10445652;28;20045;-65
2020/12/23 20:31:40;;;;;;;0.35;0.35;;;9.80;99.90;;;;;;10448528;28;19928;-65
2020/12/23 20:36:42;;;;;;;0.68;0.68;;;9.80;99.90;;;;;;10445981;28;20045;-65
2020/12/23 20:41:44;;;;;;;0.15;0.15;;;9.80;99.90;;;;;;10445522;28;20132;-65
2020/12/23 20:46:46;;;;;;;0.10;0.10;;;9.80;99.90;;;;;;10447617;28;20136;-65
2020/12/23 20:51:48;;;;;;;0.20;0.20;;;9.90;99.90;;;;;;10442998;28;20063;-65
2020/12/23 20:56:50;;;;;;;0.40;0.40;;;9.80;99.90;;;;;;10447629;28;20067;-66
2020/12/23 21:01:52;;;;;;;0.20;0.20;;;9.80;99.90;;;;;;10446141;28;20163;-66
2020/12/23 21:06:53;;;;;;;0.55;0.55;;;9.50;99.90;;;;;;10441294;28;20067;-65
2020/12/23 21:11:55;;;;;;;0.20;0.20;;;9.20;99.90;;;;;;10439436;28;20056;-65
2020/12/23 21:16:56;;;;;;;16.70;1.20;;;9.20;99.80;;;;;;10440635;28;20055;-66
2020/12/23 21:21:57;;;;;;;0.20;0.20;;;9.00;99.60;;;;;;10439105;28;20472;-65
2020/12/23 21:27:00;;;;;;;0.13;0.13;;;9.00;99.50;;;;;;10444377;28;20124;-65
2020/12/23 21:32:01;;;;;;;0.10;0.10;;;9.00;99.40;;;;;;10442718;28;20156;-65
2020/12/23 21:37:03;;;;;;;0.30;0.30;;;9.00;99.40;;;;;;10433675;28;20067;-65
2020/12/23 21:42:05;;;;;;;0.15;0.15;;;9.00;99.40;;;;;;10443642;28;20102;-65
2020/12/23 21:47:07;;;;;;;0.10;0.10;;;9.10;99.50;;;;;;10444535;28;20049;-65
2020/12/23 21:52:08;;;;;;;0.10;0.10;;;9.30;99.70;;;;;;10438455;28;20096;-65
2020/12/23 21:57:10;;;;;;;0.20;0.20;;;9.40;99.70;;;;;;10434342;28;20482;-64
2020/12/23 22:02:11;;;;;;;0.88;0.55;;;9.40;99.40;;;;;;10440857;28;20132;-65
2020/12/23 22:07:13;;;;;;;0.40;0.40;;;9.30;99.00;;;;;;10440650;28;20037;-65
2020/12/23 22:12:15;;;;;;;0.15;0.15;;;9.30;98.90;;;;;;10443366;28;20781;-65
2020/12/23 22:17:16;;;;;;;0.20;0.20;;;9.20;98.70;;;;;;10444558;28;20056;-64
2020/12/23 22:22:18;;;;;;;0.10;0.10;;;9.10;98.40;;;;;;10444759;28;20652;-65
2020/12/23 22:27:20;;;;;;;1.55;1.20;;;9.10;98.30;;;;;;10437726;28;20053;-66
2020/12/23 22:32:21;;;;;;;0.20;0.20;;;9.00;98.10;;;;;;10443427;28;20056;-65
2020/12/23 22:37:22;;;;;;;0.10;0.10;;;8.90;98.00;;;;;;10443653;28;20041;-65
2020/12/23 22:42:24;;;;;;;14.13;5.18;;;8.80;98.00;;;;;;10443745;28;20187;-65
2020/12/23 22:47:26;;;;;;;3.60;2.47;;;8.80;97.90;;;;;;10423384;28;20045;-65
2020/12/23 22:52:27;;;;;;;0.10;0.10;;;8.70;97.70;;;;;;10443257;28;20663;-65
2020/12/23 22:57:30;;;;;;;0.20;0.20;;;8.70;97.50;;;;;;10442166;28;20052;-65
2020/12/23 23:02:32;;;;;;;0.20;0.20;;;8.60;97.20;;;;;;10443240;28;20490;-64
2020/12/23 23:07:33;;;;;;;0.20;0.20;;;8.50;97.00;;;;;;10443995;28;20132;-64
2020/12/23 23:12:36;;;;;;;0.17;0.17;;;8.50;97.00;;;;;;10443332;28;20666;-65
2020/12/23 23:17:38;;;;;;;0.37;0.37;;;8.50;96.80;;;;;;10440566;28;20053;-66
2020/12/23 23:22:39;;;;;;;0.13;0.13;;;8.60;97.00;;;;;;10442400;28;20045;-65
2020/12/23 23:27:43;;;;;;;0.10;0.10;;;8.60;97.10;;;;;;10438964;28;20128;-66
2020/12/23 23:32:46;;;;;;;1.55;1.45;;;8.60;97.20;;;;;;10436848;28;20057;-65
2020/12/23 23:37:47;;;;;;;0.43;0.43;;;8.80;97.30;;;;;;10440034;28;20045;-65
2020/12/23 23:42:50;;;;;;;0.20;0.20;;;8.80;97.40;;;;;;10449033;28;20074;-65
2020/12/23 23:47:51;;;;;;;0.20;0.20;;;8.90;97.30;;;;;;10444330;28;20553;-65
2020/12/23 23:52:52;;;;;;;0.17;0.17;;;8.90;97.00;;;;;;10446020;28;20061;-65
2020/12/23 23:57:54;;;;;;;0.30;0.30;;;8.90;96.80;;;;;;10442089;28;20555;-66
